createdAt,value
2023-04-26T00:03:03.809Z,6.96
2023-04-26T00:08:06.602Z,6.93
2023-04-26T00:13:09.118Z,6.87
2023-04-26T00:18:12.781Z,6.82
2023-04-26T00:23:15.345Z,6.79
2023-04-26T00:28:17.920Z,6.79
2023-04-26T00:33:20.724Z,6.76
2023-04-26T00:38:23.352Z,6.74
2023-04-26T00:43:25.908Z,6.67
2023-04-26T00:48:28.821Z,6.54
2023-04-26T00:53:31.836Z,6.40
2023-04-26T00:58:37.074Z,6.27
2023-04-26T01:03:40.186Z,6.20
2023-04-26T01:08:43.674Z,6.18
2023-04-26T01:13:47.446Z,6.21
2023-04-26T01:18:53.775Z,6.28
2023-04-26T01:23:56.962Z,6.34
2023-04-26T01:28:59.696Z,6.35
2023-04-26T01:34:02.198Z,6.29
2023-04-26T01:39:05.193Z,6.19
2023-04-26T01:44:07.814Z,6.07
2023-04-26T01:49:10.556Z,6.00
2023-04-26T01:54:13.100Z,5.97
2023-04-26T01:59:15.678Z,5.97
2023-04-26T02:04:18.226Z,6.02
2023-04-26T02:09:20.859Z,6.06
2023-04-26T02:14:23.413Z,6.11
2023-04-26T02:19:26.677Z,6.15
2023-04-26T02:24:30.587Z,6.16
2023-04-26T02:29:44.249Z,6.14
2023-04-26T02:34:47.273Z,6.08
2023-04-26T02:39:51.419Z,6.04
2023-04-26T02:44:53.954Z,5.97
2023-04-26T02:49:57.032Z,5.89
2023-04-26T02:55:00.962Z,5.75
2023-04-26T03:00:05.483Z,5.62
2023-04-26T03:05:09.556Z,5.48
2023-04-26T03:10:12.750Z,5.34
2023-04-26T03:15:15.353Z,5.25
2023-04-26T03:20:17.875Z,5.15
2023-04-26T03:25:20.421Z,5.03
2023-04-26T03:30:22.943Z,4.93
2023-04-26T03:35:25.503Z,4.86
2023-04-26T03:40:29.710Z,4.82
2023-04-26T03:45:32.368Z,4.80
2023-04-26T03:50:35.022Z,4.78
2023-04-26T03:55:38.244Z,4.76
2023-04-26T04:00:43.699Z,4.76
2023-04-26T04:05:46.327Z,4.76
2023-04-26T04:10:49.208Z,4.82
2023-04-26T04:15:51.904Z,4.90
2023-04-26T04:20:54.588Z,4.92
2023-04-26T04:25:57.658Z,4.96
2023-04-26T04:31:01.611Z,5.03
2023-04-26T04:36:04.740Z,5.12
2023-04-26T04:41:08.664Z,5.21
2023-04-26T04:46:12.725Z,5.33
2023-04-26T04:51:15.639Z,5.44
2023-04-26T04:56:19.538Z,5.55
2023-04-26T05:01:22.565Z,5.65
2023-04-26T05:06:25.435Z,5.72
2023-04-26T05:11:28.239Z,5.76
2023-04-26T05:16:30.794Z,5.87
2023-04-26T05:21:33.662Z,6.05
2023-04-26T05:26:36.558Z,6.28
2023-04-26T05:31:39.101Z,8.11
2023-04-26T05:36:41.754Z,11.32
2023-04-26T05:41:44.733Z,14.45
2023-04-26T05:46:47.496Z,17.14
2023-04-26T05:51:50.049Z,18.05
2023-04-26T05:56:52.571Z,18.59
2023-04-26T06:01:55.432Z,20.28
2023-04-26T06:06:58.127Z,20.99
2023-04-26T06:12:00.676Z,21.72
2023-04-26T06:17:03.253Z,22.81
2023-04-26T06:22:06.012Z,23.64
2023-04-26T06:27:08.501Z,24.00
2023-04-26T06:32:11.405Z,24.05
2023-04-26T06:37:13.994Z,23.11
2023-04-26T06:42:16.811Z,21.18
2023-04-26T06:47:19.362Z,19.89
2023-04-26T06:52:22.122Z,18.96
2023-04-26T06:57:25.960Z,18.29
2023-04-26T07:02:28.655Z,19.43
2023-04-26T07:07:31.543Z,20.44
2023-04-26T07:12:34.164Z,19.86
2023-04-26T07:17:36.799Z,18.46
2023-04-26T07:22:39.323Z,17.42
2023-04-26T07:27:42.358Z,17.12
2023-04-26T07:32:45.024Z,16.80
2023-04-26T07:37:47.859Z,16.47
2023-04-26T07:42:50.635Z,15.60
2023-04-26T07:47:53.322Z,14.92
2023-04-26T07:52:55.905Z,14.71
2023-04-26T07:57:58.428Z,14.50
2023-04-26T08:03:01.324Z,14.09
2023-04-26T08:08:05.428Z,13.71
2023-04-26T08:13:08.355Z,13.23
2023-04-26T08:18:11.204Z,13.10
2023-04-26T08:23:14.346Z,13.71
2023-04-26T08:28:17.341Z,14.55
2023-04-26T08:33:20.014Z,13.90
2023-04-26T08:38:22.852Z,13.20
2023-04-26T08:43:27.457Z,12.56
2023-04-26T08:48:34.321Z,11.86
2023-04-26T08:53:37.413Z,11.59
2023-04-26T08:58:40.533Z,11.73
2023-04-26T09:03:44.105Z,11.84
2023-04-26T09:08:48.856Z,12.18
2023-04-26T09:13:52.386Z,12.60
2023-04-26T09:18:57.330Z,12.82
2023-04-26T09:24:05.666Z,13.04
2023-04-26T09:29:13.599Z,13.11
2023-04-26T09:34:17.885Z,13.30
2023-04-26T09:39:41.537Z,13.45
2023-04-26T09:44:44.250Z,13.38
2023-04-26T09:49:50.153Z,13.07
2023-04-26T09:54:53.905Z,12.66
2023-04-26T09:59:57.807Z,12.17
2023-04-26T10:05:04.684Z,11.81
2023-04-26T10:10:08.421Z,11.70
2023-04-26T10:15:12.072Z,12.19
2023-04-26T10:20:17.686Z,12.31
2023-04-26T10:25:20.636Z,11.94
2023-04-26T10:30:23.360Z,11.67
2023-04-26T10:35:28.054Z,11.51
2023-04-26T10:40:34.271Z,11.47
2023-04-26T10:45:37.595Z,11.47
2023-04-26T10:50:59.193Z,11.43
2023-04-26T10:56:01.800Z,11.67
2023-04-26T11:01:23.371Z,11.85
2023-04-26T11:06:26.731Z,11.53
2023-04-26T11:11:32.743Z,11.04
2023-04-26T11:16:35.688Z,11.10
2023-04-26T11:21:38.315Z,11.51
2023-04-26T11:27:10.144Z,11.62
2023-04-26T11:32:14.317Z,11.36
2023-04-26T11:37:18.232Z,11.15
2023-04-26T11:42:25.296Z,10.98
2023-04-26T11:47:30.789Z,10.89
2023-04-26T11:52:33.617Z,10.97
2023-04-26T11:57:36.517Z,11.49
2023-04-26T12:02:39.297Z,12.13
2023-04-26T12:07:42.119Z,12.44
2023-04-26T12:12:48.441Z,12.47
2023-04-26T12:17:57.326Z,12.38
2023-04-26T12:23:05.781Z,12.06
2023-04-26T12:28:13.915Z,11.68
2023-04-26T12:33:18.120Z,11.04
2023-04-26T12:38:33.787Z,10.55
2023-04-26T12:43:46.263Z,10.34
2023-04-26T12:48:49.426Z,10.37
2023-04-26T12:53:51.967Z,10.61
2023-04-26T12:58:54.572Z,11.02
2023-04-26T13:03:59.828Z,11.49
2023-04-26T13:09:03.217Z,11.96
2023-04-26T13:14:07.231Z,12.23
2023-04-26T13:19:12.997Z,12.18
2023-04-26T13:24:16.604Z,12.24
2023-04-26T13:29:19.654Z,12.33
2023-04-26T13:34:22.262Z,12.31
2023-04-26T13:39:25.931Z,12.25
2023-04-26T13:44:28.821Z,12.13
2023-04-26T13:49:32.280Z,11.76
2023-04-26T13:54:36.981Z,11.53
2023-04-26T13:59:40.597Z,11.58
2023-04-26T14:04:43.436Z,11.76
2023-04-26T14:09:46.571Z,11.66
2023-04-26T14:14:49.283Z,11.26
2023-04-26T14:19:54.110Z,10.78
2023-04-26T14:24:57.310Z,10.37
2023-04-26T14:30:00.449Z,10.15
2023-04-26T14:35:03.212Z,10.11
2023-04-26T14:40:07.913Z,10.28
2023-04-26T14:45:10.898Z,10.43
2023-04-26T14:50:14.334Z,10.63
2023-04-26T14:55:18.793Z,10.79
2023-04-26T15:00:22.772Z,10.81
2023-04-26T15:05:25.389Z,10.55
2023-04-26T15:10:28.059Z,10.22
2023-04-26T15:15:30.670Z,9.97
2023-04-26T15:20:33.260Z,9.99
2023-04-26T15:25:37.198Z,10.39
2023-04-26T15:30:39.925Z,10.79
2023-04-26T15:35:42.494Z,10.90
2023-04-26T15:40:45.412Z,11.15
2023-04-26T15:45:50.474Z,11.46
2023-04-26T15:50:57.717Z,11.58
2023-04-26T15:56:01.204Z,11.57
2023-04-26T16:01:04.486Z,11.31
2023-04-26T16:06:08.601Z,10.93
2023-04-26T16:11:11.914Z,10.79
2023-04-26T16:16:14.732Z,10.74
2023-04-26T16:21:18.079Z,10.58
2023-04-26T16:26:20.639Z,10.44
2023-04-26T16:31:23.492Z,10.43
2023-04-26T16:36:27.183Z,10.40
2023-04-26T16:41:29.773Z,10.27
2023-04-26T16:46:32.531Z,10.11
2023-04-26T16:51:36.975Z,9.98
2023-04-26T16:56:39.964Z,9.97
2023-04-26T17:01:42.641Z,9.99
2023-04-26T17:06:45.879Z,9.94
2023-04-26T17:11:49.936Z,9.81
2023-04-26T17:16:52.708Z,9.65
2023-04-26T17:21:55.325Z,9.41
2023-04-26T17:26:58.205Z,9.18
2023-04-26T17:32:01.586Z,8.98
2023-04-26T17:37:05.138Z,8.80
2023-04-26T17:42:08.376Z,8.60
2023-04-26T17:47:10.936Z,8.39
2023-04-26T17:52:17.155Z,8.19
2023-04-26T17:57:25.897Z,7.99
2023-04-26T18:02:28.631Z,7.81
2023-04-26T18:07:31.434Z,7.65
2023-04-26T18:12:35.284Z,7.51
2023-04-26T18:17:37.873Z,7.34
2023-04-26T18:22:41.564Z,7.18
2023-04-26T18:27:44.235Z,7.04
2023-04-26T18:32:47.249Z,6.92
2023-04-26T18:37:50.430Z,6.80
2023-04-26T18:42:53.305Z,6.68
2023-04-26T18:47:56.341Z,6.57
2023-04-26T18:52:59.383Z,6.46
2023-04-26T18:58:02.008Z,6.35
2023-04-26T19:03:05.097Z,6.25
2023-04-26T19:08:08.833Z,6.12
2023-04-26T19:13:12.484Z,5.99
2023-04-26T19:18:15.135Z,5.85
2023-04-26T19:23:18.057Z,5.71
2023-04-26T19:28:20.880Z,5.54
2023-04-26T19:33:26.888Z,5.35
2023-04-26T19:38:29.467Z,5.20
2023-04-26T19:43:32.047Z,5.06
2023-04-26T19:48:34.612Z,4.95
2023-04-26T19:53:37.215Z,4.84
2023-04-26T19:58:39.820Z,4.70
2023-04-26T20:03:42.712Z,4.58
2023-04-26T20:08:45.501Z,4.46
2023-04-26T20:13:48.099Z,4.37
2023-04-26T20:18:50.759Z,4.32
2023-04-26T20:23:54.930Z,4.26
2023-04-26T20:28:57.534Z,4.22
2023-04-26T20:34:00.909Z,4.19
2023-04-26T20:39:04.108Z,4.13
2023-04-26T20:44:06.940Z,4.06
2023-04-26T20:49:09.744Z,3.98
2023-04-26T20:54:12.576Z,3.91
2023-04-26T20:59:15.104Z,3.87
2023-04-26T21:04:17.821Z,3.82
2023-04-26T21:09:21.507Z,3.74
2023-04-26T21:14:24.303Z,3.68
2023-04-26T21:19:27.395Z,3.63
2023-04-26T21:24:30.113Z,3.57
2023-04-26T21:29:32.832Z,3.50
2023-04-26T21:34:36.741Z,3.44
2023-04-26T21:39:39.422Z,3.35
2023-04-26T21:44:42.153Z,3.28
2023-04-26T21:49:44.855Z,3.21
2023-04-26T21:54:47.660Z,3.14
2023-04-26T21:59:52.105Z,3.09
2023-04-26T22:04:55.836Z,3.03
2023-04-26T22:09:58.909Z,2.95
2023-04-26T22:15:01.787Z,2.89
2023-04-26T22:20:05.412Z,2.86
2023-04-26T22:25:08.633Z,2.83
2023-04-26T22:30:22.756Z,2.79
2023-04-26T22:35:28.964Z,2.72
2023-04-26T22:40:32.639Z,2.65
2023-04-26T22:45:36.830Z,2.56
2023-04-26T22:50:39.566Z,2.47
2023-04-26T22:55:44.215Z,2.38
2023-04-26T23:00:47.145Z,2.30
2023-04-26T23:05:50.210Z,2.26
2023-04-26T23:10:52.954Z,2.21
2023-04-26T23:15:55.766Z,2.16
2023-04-26T23:20:58.564Z,2.13
2023-04-26T23:26:01.510Z,2.15
2023-04-26T23:31:04.271Z,2.19
2023-04-26T23:36:10.180Z,2.26
2023-04-26T23:41:14.262Z,2.33
2023-04-26T23:46:16.933Z,2.39
2023-04-26T23:51:19.699Z,2.47
2023-04-26T23:56:22.386Z,2.56
